地図

経路データ

SID SEASON NUMBER BASIN SUBBASIN NAME ISO_TIME NATURE LAT LON WMO_WIND WMO_PRES WMO_AGENCY TRACK_TYPE DIST2LAND LANDFALL IFLAG USA_AGENCY USA_ATCF_ID USA_LAT USA_LON USA_RECORD USA_STATUS USA_WIND USA_PRES USA_SSHS USA_R34_NE USA_R34_SE USA_R34_SW USA_R34_NW USA_R50_NE USA_R50_SE USA_R50_SW USA_R50_NW USA_R64_NE USA_R64_SE USA_R64_SW USA_R64_NW USA_POCI USA_ROCI USA_RMW USA_EYE TOKYO_LAT TOKYO_LON TOKYO_GRADE TOKYO_WIND TOKYO_PRES TOKYO_R50_DIR TOKYO_R50_LONG TOKYO_R50_SHORT TOKYO_R30_DIR TOKYO_R30_LONG TOKYO_R30_SHORT TOKYO_LAND CMA_LAT CMA_LON CMA_CAT CMA_WIND CMA_PRES HKO_LAT HKO_LON HKO_CAT HKO_WIND HKO_PRES NEWDELHI_LAT NEWDELHI_LON NEWDELHI_GRADE NEWDELHI_WIND NEWDELHI_PRES NEWDELHI_CI NEWDELHI_DP NEWDELHI_POCI REUNION_LAT REUNION_LON REUNION_TYPE REUNION_WIND REUNION_PRES REUNION_TNUM REUNION_CI REUNION_RMW REUNION_R34_NE REUNION_R34_SE REUNION_R34_SW REUNION_R34_NW REUNION_R50_NE REUNION_R50_SE REUNION_R50_SW REUNION_R50_NW REUNION_R64_NE REUNION_R64_SE REUNION_R64_SW REUNION_R64_NW BOM_LAT BOM_LON BOM_TYPE BOM_WIND BOM_PRES BOM_TNUM BOM_CI BOM_RMW BOM_R34_NE BOM_R34_SE BOM_R34_SW BOM_R34_NW BOM_R50_NE BOM_R50_SE BOM_R50_SW BOM_R50_NW BOM_R64_NE BOM_R64_SE BOM_R64_SW BOM_R64_NW BOM_ROCI BOM_POCI BOM_EYE BOM_POS_METHOD BOM_PRES_METHOD NADI_LAT NADI_LON NADI_CAT NADI_WIND NADI_PRES WELLINGTON_LAT WELLINGTON_LON WELLINGTON_WIND WELLINGTON_PRES DS824_LAT DS824_LON DS824_STAGE DS824_WIND DS824_PRES TD9636_LAT TD9636_LON TD9636_STAGE TD9636_WIND TD9636_PRES TD9635_LAT TD9635_LON TD9635_WIND TD9635_PRES TD9635_ROCI NEUMANN_LAT NEUMANN_LON NEUMANN_CLASS NEUMANN_WIND NEUMANN_PRES MLC_LAT MLC_LON MLC_CLASS MLC_WIND MLC_PRES USA_GUST BOM_GUST BOM_GUST_PER REUNION_GUST REUNION_GUST_PER USA_SEAHGT USA_SEARAD_NE USA_SEARAD_SE USA_SEARAD_SW USA_SEARAD_NW STORM_SPEED STORM_DIR
1900267N10126 1900 29 WP MM NOT_NAMED 1900-09-23 16:00:00 NR 10.2000 126.100 main 78 45 __________O___ -1 10.2000 126.100 2 10 265
1900267N10126 1900 29 WP MM NOT_NAMED 1900-09-23 18:00:00 NR 10.1709 125.749 main 45 15 __________P___ -1 10.1709 125.749 2 10 265
1900267N10126 1900 29 WP MM NOT_NAMED 1900-09-23 21:00:00 NR 10.1316 125.230 main 15 0 __________P___ -1 10.1316 125.230 2 10 266
1900267N10126 1900 29 WP MM NOT_NAMED 1900-09-24 00:00:00 NR 10.1043 124.727 main 15 0 __________P___ -1 10.1043 124.727 2 10 268
1900267N10126 1900 29 WP MM NOT_NAMED 1900-09-24 03:00:00 NR 10.0968 124.251 main 0 0 __________P___ -1 10.0968 124.251 2 9 270
1900267N10126 1900 29 WP MM NOT_NAMED 1900-09-24 04:00:00 NR 10.1000 124.100 main 0 0 __________O___ -1 10.1000 124.100 2 9 273
1900267N10126 1900 29 WP MM NOT_NAMED 1900-09-24 06:00:00 NR 10.1160 123.811 main 10 0 __________P___ -1 10.1160 123.811 2 8 275
1900267N10126 1900 29 WP MM NOT_NAMED 1900-09-24 09:00:00 NR 10.1591 123.409 main 10 0 __________P___ -1 10.1591 123.409 2 8 278
1900267N10126 1900 29 WP MM NOT_NAMED 1900-09-24 12:00:00 NR 10.2168 123.041 main 0 0 __________P___ -1 10.2168 123.041 2 7 280
1900267N10126 1900 29 WP MM NOT_NAMED 1900-09-24 15:00:00 NR 10.2796 122.705 main 21 21 __________P___ -1 10.2796 122.705 2 7 281
1900267N10126 1900 29 WP MM NOT_NAMED 1900-09-24 16:00:00 NR 10.3000 122.600 main 31 31 __________O___ -1 10.3000 122.600 2 6 279
1900267N10126 1900 29 WP MM NOT_NAMED 1900-09-24 18:00:00 NR 10.3253 122.402 main 39 10 __________P___ -1 10.3253 122.402 2 6 278
1900267N10126 1900 29 WP MM NOT_NAMED 1900-09-24 21:00:00 NR 10.3631 122.129 main 10 0 __________P___ -1 10.3631 122.129 2 5 279
1900267N10126 1900 29 WP MM NOT_NAMED 1900-09-25 00:00:00 NR 10.4093 121.868 main 0 0 __________P___ -1 10.4093 121.868 2 5 282
1900267N10126 1900 29 WP MM NOT_NAMED 1900-09-25 03:00:00 NR 10.4732 121.597 main 34 34 __________P___ -1 10.4732 121.597 2 6 284
1900267N10126 1900 29 WP MM NOT_NAMED 1900-09-25 04:00:00 NR 10.5000 121.500 main 45 45 __________O___ -1 10.5000 121.500 2 7 286
1900267N10126 1900 29 WP MM NOT_NAMED 1900-09-25 06:00:00 NR 10.5663 121.276 main 69 69 __________P___ -1 10.5663 121.276 2 7 288
1900267N10126 1900 29 WP MM NOT_NAMED 1900-09-25 09:00:00 NR 10.6846 120.921 main 109 104 __________P___ -1 10.6846 120.921 2 7 290
1900267N10126 1900 29 WP MM NOT_NAMED 1900-09-25 12:00:00 NR 10.8171 120.559 main 104 65 __________P___ -1 10.8171 120.559 2 8 291
1900267N10126 1900 29 WP MM NOT_NAMED 1900-09-25 15:00:00 NR 10.9547 120.210 main 65 54 __________P___ -1 10.9547 120.210 2 7 292
1900267N10126 1900 29 WP MM NOT_NAMED 1900-09-25 16:00:00 NR 11.0000 120.100 main 54 34 __________O___ -1 11.0000 120.100 2 6 292
1900267N10126 1900 29 WP MM NOT_NAMED 1900-09-25 18:00:00 NR 11.0726 119.915 main 34 15 __________P___ -1 11.0726 119.915 2 6 293
1900267N10126 1900 29 WP MM NOT_NAMED 1900-09-25 21:00:00 NR 11.1814 119.657 main 15 0 __________P___ -1 11.1814 119.657 2 6 294
1900267N10126 1900 29 WP MM NOT_NAMED 1900-09-26 00:00:00 NR 11.3013 119.397 main 10 10 __________P___ -1 11.3013 119.397 2 6 296
1900267N10126 1900 29 WP MM NOT_NAMED 1900-09-26 03:00:00 NR 11.4448 119.108 main 39 46 __________P___ -1 11.4448 119.108 2 7 297
1900267N10126 1900 29 WP MM NOT_NAMED 1900-09-26 04:00:00 NR 11.5000 119.000 main 55 55 __________O___ -1 11.5000 119.000 2 8 297
1900267N10126 1900 29 WP MM NOT_NAMED 1900-09-26 06:00:00 NR 11.6273 118.748 main 88 88 __________P___ -1 11.6273 118.748 2 9 298
1900267N10126 1900 29 WP MM NOT_NAMED 1900-09-26 09:00:00 NR 11.8433 118.333 main 137 143 __________P___ -1 11.8433 118.333 2 10 298
1900267N10126 1900 29 WP MM NOT_NAMED 1900-09-26 12:00:00 NR 12.0784 117.891 main 192 192 __________P___ -1 12.0784 117.891 2 10 299
1900267N10126 1900 29 WP MM NOT_NAMED 1900-09-26 15:00:00 NR 12.3201 117.446 main 250 250 __________P___ -1 12.3201 117.446 2 10 299
1900267N10126 1900 29 WP MM NOT_NAMED 1900-09-26 16:00:00 NR 12.4000 117.300 main 265 265 __________O___ -1 12.4000 117.300 2 9 300
1900267N10126 1900 29 WP MM NOT_NAMED 1900-09-26 18:00:00 NR 12.5471 117.038 main 299 304 __________P___ -1 12.5471 117.038 2 9 300
1900267N10126 1900 29 WP MM NOT_NAMED 1900-09-26 21:00:00 NR 12.7678 116.651 main 344 353 __________P___ -1 12.7678 116.651 2 9 300
1900267N10126 1900 29 WP MM NOT_NAMED 1900-09-27 00:00:00 NR 12.9915 116.259 main 392 402 __________P___ -1 12.9915 116.259 2 9 300
1900267N10126 1900 29 WP MM NOT_NAMED 1900-09-27 03:00:00 NR 13.2215 115.845 main 451 451 __________P___ -1 13.2215 115.845 2 9 300
1900267N10126 1900 29 WP MM NOT_NAMED 1900-09-27 04:00:00 NR 13.3000 115.700 main 465 465 __________O___ -1 13.3000 115.700 2 10 299
1900267N10126 1900 29 WP MM NOT_NAMED 1900-09-27 06:00:00 NR 13.4689 115.382 main 505 505 __________P___ -1 13.4689 115.382 2 11 298
1900267N10126 1900 29 WP MM NOT_NAMED 1900-09-27 09:00:00 NR 13.7287 114.879 main 563 544 __________P___ -1 13.7287 114.879 2 11 298
1900267N10126 1900 29 WP MM NOT_NAMED 1900-09-27 12:00:00 NR 13.9851 114.365 main 544 497 __________P___ -1 13.9851 114.365 2 11 297
1900267N10126 1900 29 WP MM NOT_NAMED 1900-09-27 15:00:00 NR 14.2255 113.862 main 497 476 __________P___ -1 14.2255 113.862 2 11 296
1900267N10126 1900 29 WP MM NOT_NAMED 1900-09-27 16:00:00 NR 14.3000 113.700 main 476 445 __________O___ -1 14.3000 113.700 2 10 296
1900267N10126 1900 29 WP MM NOT_NAMED 1900-09-27 18:00:00 NR 14.4412 113.407 main 445 406 __________P___ -1 14.4412 113.407 2 9 296
1900267N10126 1900 29 WP MM NOT_NAMED 1900-09-27 21:00:00 NR 14.6346 112.987 main 406 369 __________P___ -1 14.6346 112.987 2 9 294
1900267N10126 1900 29 WP MM NOT_NAMED 1900-09-28 00:00:00 NR 14.8059 112.574 main 369 324 __________P___ -1 14.8059 112.574 2 9 292
1900267N10126 1900 29 WP MM NOT_NAMED 1900-09-28 03:00:00 NR 14.9552 112.148 main 324 313 __________P___ -1 14.9552 112.148 2 9 289
1900267N10126 1900 29 WP MM NOT_NAMED 1900-09-28 04:00:00 NR 15.0000 112.000 main 313 283 __________O___ -1 15.0000 112.000 2 9 286
1900267N10126 1900 29 WP MM NOT_NAMED 1900-09-28 06:00:00 NR 15.0863 111.686 main 283 232 __________P___ -1 15.0863 111.686 2 10 284
1900267N10126 1900 29 WP MM NOT_NAMED 1900-09-28 09:00:00 NR 15.1969 111.197 main 232 184 __________P___ -1 15.1969 111.197 2 10 282
1900267N10126 1900 29 WP MM NOT_NAMED 1900-09-28 12:00:00 NR 15.2906 110.691 main 184 140 __________P___ -1 15.2906 110.691 2 10 280
1900267N10126 1900 29 WP MM NOT_NAMED 1900-09-28 15:00:00 NR 15.3736 110.174 main 140 120 __________P___ -1 15.3736 110.174 2 10 279
1900267N10126 1900 29 WP MM NOT_NAMED 1900-09-28 16:00:00 NR 15.4000 110.000 main 120 88 __________O___ -1 15.4000 110.000 2 10 279
1900267N10126 1900 29 WP MM NOT_NAMED 1900-09-28 18:00:00 NR 15.4520 109.652 main 92 39 __________P___ -1 15.4520 109.652 2 10 279
1900267N10126 1900 29 WP MM NOT_NAMED 1900-09-28 21:00:00 NR 15.5284 109.128 main 39 10 __________P___ -1 15.5284 109.128 2 10 278
1900267N10126 1900 29 WP MM NOT_NAMED 1900-09-29 00:00:00 NR 15.6030 108.602 main 10 0 __________P___ -1 15.6030 108.602 2 10 278
1900267N10126 1900 29 WP MM NOT_NAMED 1900-09-29 03:00:00 NR 15.6760 108.076 main 0 0 __________P___ -1 15.6760 108.076 2 10 278
1900267N10126 1900 29 WP MM NOT_NAMED 1900-09-29 04:00:00 NR 15.7000 107.900 main 0 __________O___ -1 15.7000 107.900 2 10 278

デジタル台風データ・検索

IBTrACS Databaseについて

本データベースは、米国NOAAが公開する1842年以降の世界の熱帯低気圧のベストトラックデータアーカイブInternational Best Track Archive for Climate Stewardship (IBTrACS)を、ウェブで閲覧しやすい形式に変換したものです。

最終更新日:2021-11-26